createdAt,value
2018-02-09T00:03:39.781Z,36
2018-02-09T00:13:39.820Z,37
2018-02-09T00:23:39.752Z,40
2018-02-09T00:33:39.811Z,40
2018-02-09T00:43:39.864Z,40
2018-02-09T00:53:39.782Z,38
2018-02-09T01:03:40.237Z,41
2018-02-09T01:13:39.769Z,43
2018-02-09T01:23:39.756Z,45
2018-02-09T01:33:39.892Z,41
2018-02-09T01:43:39.893Z,44
2018-02-09T01:53:39.840Z,42
2018-02-09T02:03:39.826Z,41
2018-02-09T02:13:39.897Z,44
2018-02-09T02:23:39.839Z,40
2018-02-09T02:33:39.899Z,40
2018-02-09T02:43:39.902Z,43
2018-02-09T02:53:39.918Z,40
2018-02-09T03:03:39.818Z,41
2018-02-09T03:13:39.926Z,38
2018-02-09T03:23:39.827Z,40
2018-02-09T03:33:39.859Z,39
2018-02-09T03:43:39.931Z,41
2018-02-09T03:53:40.592Z,38
2018-02-09T04:03:39.973Z,40
2018-02-09T04:13:39.950Z,38
2018-02-09T04:23:39.982Z,38
2018-02-09T04:33:39.917Z,37
2018-02-09T04:43:40.005Z,39
2018-02-09T04:53:39.962Z,37
2018-02-09T05:03:39.920Z,38
2018-02-09T05:13:39.963Z,39
2018-02-09T05:23:39.914Z,39
2018-02-09T05:33:39.954Z,41
2018-02-09T05:43:39.948Z,38
2018-02-09T05:53:40.018Z,40
2018-02-09T06:03:39.942Z,41
2018-02-09T06:13:40.088Z,40
2018-02-09T06:23:39.984Z,37
2018-02-09T06:33:40.082Z,39
2018-02-09T06:43:40.003Z,39
2018-02-09T06:53:39.984Z,38
2018-02-09T07:03:40.262Z,39
2018-02-09T07:13:40.303Z,40
2018-02-09T07:23:40.081Z,39
2018-02-09T07:33:40.059Z,39
2018-02-09T07:43:40.546Z,38
2018-02-09T07:53:40.068Z,38
2018-02-09T08:03:40.222Z,36
2018-02-09T08:13:40.182Z,35
2018-02-09T08:23:40.140Z,35
2018-02-09T08:33:40.218Z,36
2018-02-09T08:43:40.152Z,37
2018-02-09T08:53:40.136Z,37
2018-02-09T09:03:40.109Z,34
2018-02-09T09:13:40.211Z,36
2018-02-09T09:23:40.175Z,36
2018-02-09T09:33:40.236Z,35
2018-02-09T09:43:40.219Z,35
2018-02-09T09:53:40.244Z,33
2018-02-09T10:03:40.172Z,35
2018-02-09T10:13:40.139Z,37
2018-02-09T10:23:40.176Z,38
2018-02-09T10:33:40.257Z,36
2018-02-09T10:43:40.137Z,37
2018-02-09T10:53:40.149Z,37
2018-02-09T11:03:40.233Z,38
2018-02-09T11:13:40.194Z,34
2018-02-09T11:23:40.268Z,35
2018-02-09T11:33:40.298Z,37
2018-02-09T11:43:40.259Z,37
2018-02-09T11:53:40.221Z,36
2018-02-09T12:03:40.369Z,35
2018-02-09T12:13:40.304Z,35
2018-02-09T12:23:40.190Z,34
2018-02-09T12:33:40.515Z,37
2018-02-09T12:43:40.259Z,36
2018-02-09T12:53:40.395Z,39
2018-02-09T13:03:40.377Z,37
2018-02-09T13:13:40.337Z,39
2018-02-09T13:23:40.313Z,37
2018-02-09T13:33:40.368Z,40
2018-02-09T13:43:40.372Z,39
2018-02-09T13:53:40.365Z,40
2018-02-09T14:03:40.413Z,42
2018-02-09T14:13:40.358Z,40
2018-02-09T14:23:40.435Z,39
2018-02-09T14:33:40.538Z,37
2018-02-09T14:43:40.397Z,42
2018-02-09T14:53:41.089Z,40
2018-02-09T15:03:40.395Z,39
2018-02-09T15:13:50.513Z,38
2018-02-09T15:23:58.125Z,38
2018-02-09T15:33:40.515Z,39
2018-02-09T15:43:40.445Z,50
2018-02-09T15:53:40.339Z,40
2018-02-09T16:03:40.442Z,40
2018-02-09T16:13:40.492Z,40
2018-02-09T16:23:40.468Z,35
2018-02-09T16:33:40.468Z,36
2018-02-09T16:43:40.537Z,35
2018-02-09T16:53:42.468Z,36
2018-02-09T17:03:40.573Z,33
2018-02-09T17:13:40.564Z,37
2018-02-09T17:23:40.759Z,37
2018-02-09T17:33:40.509Z,34
2018-02-09T17:43:40.643Z,32
2018-02-09T17:53:40.589Z,31
2018-02-09T18:03:40.541Z,32
2018-02-09T18:13:40.551Z,31
2018-02-09T18:23:40.553Z,27
2018-02-09T18:33:40.601Z,31
2018-02-09T18:43:40.747Z,28
2018-02-09T18:53:40.695Z,32
2018-02-09T19:03:41.021Z,29
2018-02-09T19:13:40.769Z,31
2018-02-09T19:23:40.753Z,28
2018-02-09T19:33:40.702Z,29
2018-02-09T19:43:40.657Z,27
2018-02-09T19:53:40.596Z,25
2018-02-09T20:03:41.061Z,28
2018-02-09T20:13:40.700Z,25
2018-02-09T20:23:40.939Z,25
2018-02-09T20:33:42.558Z,22
2018-02-09T20:43:40.573Z,24
2018-02-09T20:53:40.680Z,23
2018-02-09T21:03:40.682Z,24
2018-02-09T21:13:41.753Z,21
2018-02-09T21:24:03.105Z,23
2018-02-09T21:33:40.695Z,21
2018-02-09T21:43:40.762Z,23
2018-02-09T21:53:40.835Z,31
2018-02-09T22:03:41.075Z,22
2018-02-09T22:13:40.844Z,22
2018-02-09T22:23:40.878Z,22
2018-02-09T22:33:40.763Z,22
2018-02-09T22:43:40.740Z,21
2018-02-09T22:53:40.842Z,20
2018-02-09T23:03:40.797Z,22
2018-02-09T23:13:41.423Z,24
2018-02-09T23:23:41.292Z,26
2018-02-09T23:33:40.933Z,23
2018-02-09T23:43:40.861Z,24
2018-02-09T23:53:40.847Z,23
